CheckWX is a tool to help pilots better visualize weather data.  It is not intended as a substitute for an official pre-flight weather briefing.

23:10:15 UTC

MMML TAF
General Rodolfo Sánchez Taboada International Airport
Mexicali, Mexico
TAF MMML 231642Z 2318/2418 15010KT P6SM SCT220 FM240400 33008KT P6SM SCT220 FM241600 35010KT P6SM SKC

Mar-23@
18:00 UTC

Mar-23 @ 18:00 UTC

Mar-24@
04:00 UTC

Mar-24 @ 04:00 UTC

TAF MMML 231642Z 2318/2418 15010KT P6SM SCT220
Wind
  • 150° at 10 KTS
Cloud Levels
  • Scattered at 22,000' AGL

Mar-24@
04:00 UTC

Mar-24 @ 04:00 UTC

Mar-24@
16:00 UTC

Mar-24 @ 16:00 UTC

FM240400 33008KT P6SM SCT220

From

From Standard forecast or significant change

Wind
  • 330° at 8 KTS
Cloud Levels
  • Scattered at 22,000' AGL

Mar-24@
16:00 UTC

Mar-24 @ 16:00 UTC

Mar-24@
18:00 UTC

Mar-24 @ 18:00 UTC

FM241600 35010KT P6SM SKC

From

From Standard forecast or significant change

Wind
  • 350° at 10 KTS
Cloud Levels
  • Clear skies